Time;durP1;ratioP1;P1;durP2;ratioP2;P2;SDS_P1;SDS_P2;PMS_P1;PMS_P2;Temp;Humidity;BMP_temperature;BMP_pressure;BME280_temperature;BME280_humidity;BME280_pressure;Samples;Min_cycle;Max_cycle;Signal;HPM_P1;HPM_P2
2023/09/17 00:00:37;;;;;;;27.70;5.82;;;;;;;;;;4978237;28;20026;-71
2023/09/17 00:03:03;;;;;;;31.60;6.50;;;;;;;;;;4984790;28;20658;-71
2023/09/17 00:05:32;;;;;;;32.75;6.13;;;;;;;;;;4979796;28;20433;-71
2023/09/17 00:07:58;;;;;;;33.72;6.80;;;;;;;;;;4981585;28;20033;-71
2023/09/17 00:10:24;;;;;;;33.80;6.93;;;;;;;;;;4980773;28;20546;-71
2023/09/17 00:12:55;;;;;;;29.70;6.03;;;;;;;;;;4980149;28;20404;-71
2023/09/17 00:15:21;;;;;;;37.03;6.70;;;;;;;;;;4983507;28;20034;-71
2023/09/17 00:17:48;;;;;;;32.08;6.05;;;;;;;;;;4987147;28;20030;-71
2023/09/17 00:20:15;;;;;;;32.47;6.15;;;;;;;;;;4988819;28;20033;-71
2023/09/17 00:22:41;;;;;;;27.27;5.47;;;;;;;;;;4979853;28;24919;-71
2023/09/17 00:25:08;;;;;;;31.25;5.43;;;;;;;;;;4984181;28;20038;-70
2023/09/17 00:27:34;;;;;;;30.42;6.18;;;;;;;;;;4977576;28;20022;-71
2023/09/17 00:30:00;;;;;;;38.60;7.60;;;;;;;;;;4985890;28;20104;-71
2023/09/17 00:32:26;;;;;;;46.35;7.68;;;;;;;;;;4979302;28;20033;-71
2023/09/17 00:34:52;;;;;;;39.08;7.68;;;;;;;;;;4982646;28;20029;-71
2023/09/17 00:37:19;;;;;;;40.63;8.43;;;;;;;;;;4980150;28;20491;-71
2023/09/17 00:39:45;;;;;;;41.25;7.60;;;;;;;;;;4981020;28;20030;-70
2023/09/17 00:42:11;;;;;;;54.47;9.52;;;;;;;;;;4981277;28;20497;-71
2023/09/17 00:44:37;;;;;;;41.28;8.18;;;;;;;;;;4994091;28;20057;-72
2023/09/17 00:47:04;;;;;;;39.47;8.05;;;;;;;;;;4978346;28;20057;-70
2023/09/17 00:49:31;;;;;;;48.72;8.70;;;;;;;;;;4972576;28;20099;-70
2023/09/17 00:51:57;;;;;;;46.78;9.57;;;;;;;;;;4986714;28;20234;-71
2023/09/17 00:54:24;;;;;;;46.00;8.88;;;;;;;;;;4982495;28;20034;-71
2023/09/17 00:56:53;;;;;;;39.17;8.18;;;;;;;;;;4981353;28;20153;-70
2023/09/17 00:59:20;;;;;;;43.00;8.52;;;;;;;;;;4984516;28;20444;-70
2023/09/17 01:01:46;;;;;;;52.72;10.05;;;;;;;;;;4980529;28;20033;-70
2023/09/17 01:04:15;;;;;;;42.80;8.93;;;;;;;;;;4977466;28;20034;-70
2023/09/17 01:06:42;;;;;;;52.88;9.63;;;;;;;;;;4981023;28;20384;-70
2023/09/17 01:09:08;;;;;;;61.30;11.60;;;;;;;;;;4985081;28;20490;-71
2023/09/17 01:11:34;;;;;;;60.88;9.95;;;;;;;;;;4981826;28;20385;-70
2023/09/17 01:14:12;;;;;;;64.35;11.82;;;;;;;;;;4984362;28;20064;-70
2023/09/17 01:16:38;;;;;;;49.80;9.80;;;;;;;;;;4976040;28;20035;-71
2023/09/17 01:19:04;;;;;;;63.03;11.68;;;;;;;;;;4978227;28;20364;-70
2023/09/17 01:21:33;;;;;;;65.85;11.57;;;;;;;;;;4974753;28;20038;-70
2023/09/17 01:24:14;;;;;;;57.58;11.07;;;;;;;;;;4978701;28;20061;-70
2023/09/17 01:26:41;;;;;;;60.92;11.73;;;;;;;;;;4990878;28;20461;-70
2023/09/17 01:29:07;;;;;;;60.97;11.90;;;;;;;;;;4977505;28;20037;-70
2023/09/17 01:31:34;;;;;;;67.57;13.00;;;;;;;;;;4976621;28;20027;-70
2023/09/17 01:34:00;;;;;;;68.65;13.38;;;;;;;;;;4984045;28;20034;-70
2023/09/17 01:36:34;;;;;;;60.42;12.15;;;;;;;;;;4976681;28;20416;-70
2023/09/17 01:39:04;;;;;;;55.38;10.57;;;;;;;;;;4981169;28;20226;-70
2023/09/17 01:41:31;;;;;;;47.85;10.38;;;;;;;;;;4978012;28;20042;-70
2023/09/17 01:43:58;;;;;;;62.20;11.98;;;;;;;;;;4977871;28;20030;-70
2023/09/17 01:46:25;;;;;;;69.22;11.13;;;;;;;;;;4979864;28;20053;-70
2023/09/17 01:48:52;;;;;;;59.75;10.90;;;;;;;;;;4977235;28;20514;-70
2023/09/17 01:51:18;;;;;;;58.40;11.98;;;;;;;;;;4979973;28;20115;-70
2023/09/17 01:53:46;;;;;;;71.93;13.85;;;;;;;;;;4976567;28;20060;-70
2023/09/17 01:56:13;;;;;;;66.07;11.75;;;;;;;;;;4978279;28;20495;-70
2023/09/17 01:58:39;;;;;;;57.25;11.32;;;;;;;;;;4975739;28;20048;-70
2023/09/17 02:01:05;;;;;;;74.18;13.52;;;;;;;;;;4979111;28;20046;-70
2023/09/17 02:03:31;;;;;;;74.90;13.90;;;;;;;;;;4978618;28;20452;-70
2023/09/17 02:05:58;;;;;;;72.60;13.63;;;;;;;;;;4982151;28;20030;-70
2023/09/17 02:08:25;;;;;;;72.88;13.68;;;;;;;;;;4977782;28;20036;-70
2023/09/17 02:10:51;;;;;;;51.83;10.18;;;;;;;;;;4982118;28;20492;-70
2023/09/17 02:13:17;;;;;;;65.32;12.13;;;;;;;;;;4986873;28;20033;-70
2023/09/17 02:15:44;;;;;;;68.18;11.73;;;;;;;;;;4981184;28;20038;-70
2023/09/17 02:18:11;;;;;;;65.78;12.07;;;;;;;;;;4984460;28;20321;-70
2023/09/17 02:20:40;;;;;;;60.15;11.52;;;;;;;;;;4981445;28;20068;-70
2023/09/17 02:23:06;;;;;;;50.92;9.68;;;;;;;;;;4985872;28;20667;-70
2023/09/17 02:25:33;;;;;;;58.13;10.18;;;;;;;;;;4979428;28;20040;-70
2023/09/17 02:27:59;;;;;;;48.75;10.27;;;;;;;;;;4987690;28;20286;-70
2023/09/17 02:30:25;;;;;;;53.30;11.07;;;;;;;;;;4982009;28;20041;-71
2023/09/17 02:32:51;;;;;;;40.65;8.90;;;;;;;;;;4987826;28;20325;-70
2023/09/17 02:35:17;;;;;;;42.40;8.18;;;;;;;;;;4986584;28;20045;-70
2023/09/17 02:37:44;;;;;;;40.30;7.55;;;;;;;;;;4980729;28;20030;-70
2023/09/17 02:40:10;;;;;;;49.03;9.00;;;;;;;;;;4987298;28;20049;-72
2023/09/17 02:42:37;;;;;;;48.78;9.25;;;;;;;;;;4982128;28;20022;-70
2023/09/17 02:45:04;;;;;;;55.72;10.27;;;;;;;;;;4986092;28;20040;-70
2023/09/17 02:47:31;;;;;;;56.72;10.30;;;;;;;;;;4979800;28;20027;-70
2023/09/17 02:49:57;;;;;;;60.38;11.65;;;;;;;;;;4986804;28;20030;-70
2023/09/17 02:52:23;;;;;;;47.28;10.15;;;;;;;;;;4979906;28;20034;-71
2023/09/17 02:54:50;;;;;;;77.82;12.32;;;;;;;;;;4985938;28;20129;-71
2023/09/17 02:57:16;;;;;;;57.45;10.68;;;;;;;;;;4984700;28;20434;-70
2023/09/17 02:59:42;;;;;;;55.33;11.07;;;;;;;;;;4979797;28;20042;-70
2023/09/17 03:02:08;;;;;;;57.20;11.63;;;;;;;;;;4979285;28;20038;-70
2023/09/17 03:04:34;;;;;;;65.82;12.52;;;;;;;;;;4980453;28;20041;-70
2023/09/17 03:07:04;;;;;;;55.47;11.15;;;;;;;;;;4985595;28;20542;-73
2023/09/17 03:09:30;;;;;;;50.63;10.20;;;;;;;;;;4981816;28;20107;-72
2023/09/17 03:11:57;;;;;;;63.05;12.38;;;;;;;;;;4986910;28;20026;-71
2023/09/17 03:14:23;;;;;;;63.17;11.07;;;;;;;;;;4983158;28;20270;-72
2023/09/17 03:16:49;;;;;;;59.65;12.13;;;;;;;;;;4986634;28;20034;-71
2023/09/17 03:19:15;;;;;;;48.55;9.27;;;;;;;;;;4986472;28;20031;-72
2023/09/17 03:21:41;;;;;;;52.88;10.52;;;;;;;;;;4978227;28;20029;-70
2023/09/17 03:24:09;;;;;;;49.95;9.70;;;;;;;;;;4984359;28;20026;-71
2023/09/17 03:26:36;;;;;;;53.35;10.80;;;;;;;;;;4981692;28;20292;-71
2023/09/17 03:29:03;;;;;;;71.35;13.15;;;;;;;;;;4982648;28;20035;-71
2023/09/17 03:31:29;;;;;;;54.53;11.10;;;;;;;;;;4983574;28;20387;-71
2023/09/17 03:33:55;;;;;;;72.53;13.40;;;;;;;;;;4980763;28;20034;-71
2023/09/17 03:36:21;;;;;;;67.55;12.43;;;;;;;;;;4985919;28;20195;-71
2023/09/17 03:38:48;;;;;;;65.25;12.77;;;;;;;;;;4982741;28;20034;-71
2023/09/17 03:41:14;;;;;;;61.80;11.52;;;;;;;;;;4996700;28;20591;-71
2023/09/17 03:43:40;;;;;;;60.33;10.52;;;;;;;;;;4980971;28;20438;-70
2023/09/17 03:46:06;;;;;;;62.10;11.90;;;;;;;;;;4984917;28;20032;-70
2023/09/17 03:48:32;;;;;;;57.78;11.32;;;;;;;;;;4978633;28;20811;-70
2023/09/17 03:51:00;;;;;;;54.47;10.98;;;;;;;;;;4981832;28;20027;-70
2023/09/17 03:53:26;;;;;;;56.20;10.23;;;;;;;;;;4979252;28;20065;-70
2023/09/17 03:55:52;;;;;;;57.75;11.05;;;;;;;;;;4989057;28;20029;-70
2023/09/17 03:58:19;;;;;;;57.17;11.07;;;;;;;;;;4987789;28;20110;-71
2023/09/17 04:00:45;;;;;;;54.83;10.05;;;;;;;;;;4985748;28;20030;-70
2023/09/17 04:03:14;;;;;;;57.33;10.80;;;;;;;;;;4985269;28;20065;-70
2023/09/17 04:05:40;;;;;;;42.60;9.00;;;;;;;;;;4980309;28;20033;-70
2023/09/17 04:08:06;;;;;;;52.13;9.40;;;;;;;;;;4985006;28;20472;-70
2023/09/17 04:10:32;;;;;;;44.35;8.52;;;;;;;;;;4982839;28;20115;-70
2023/09/17 04:12:59;;;;;;;63.72;10.38;;;;;;;;;;4984029;28;20800;-70
2023/09/17 04:15:26;;;;;;;51.42;10.02;;;;;;;;;;4982758;28;20041;-70
2023/09/17 04:17:52;;;;;;;38.00;7.85;;;;;;;;;;4985666;28;20120;-70
2023/09/17 04:20:18;;;;;;;53.38;10.30;;;;;;;;;;4983794;28;20057;-70
2023/09/17 04:22:46;;;;;;;48.15;9.68;;;;;;;;;;4981896;28;20508;-70
2023/09/17 04:25:13;;;;;;;51.95;9.38;;;;;;;;;;4983384;28;20481;-70
2023/09/17 04:27:41;;;;;;;61.42;11.68;;;;;;;;;;4977948;28;20555;-70
2023/09/17 04:30:08;;;;;;;56.47;11.20;;;;;;;;;;4987277;28;20030;-70
2023/09/17 04:32:38;;;;;;;61.08;11.57;;;;;;;;;;4977064;28;20030;-70
2023/09/17 04:35:07;;;;;;;52.00;10.15;;;;;;;;;;4978279;28;20089;-70
2023/09/17 04:37:37;;;;;;;57.80;10.05;;;;;;;;;;4993568;28;20542;-72
2023/09/17 04:40:13;;;;;;;59.85;10.23;;;;;;;;;;4985580;28;20025;-72
2023/09/17 04:42:40;;;;;;;54.10;9.57;;;;;;;;;;4981148;28;20046;-73
2023/09/17 04:45:08;;;;;;;53.55;9.60;;;;;;;;;;4981510;28;20075;-72
2023/09/17 04:47:35;;;;;;;62.28;10.27;;;;;;;;;;4981162;28;20100;-72
2023/09/17 04:50:02;;;;;;;51.05;9.43;;;;;;;;;;4981402;28;20127;-72
2023/09/17 04:52:28;;;;;;;60.30;9.82;;;;;;;;;;4977007;28;20029;-70
2023/09/17 04:54:54;;;;;;;47.00;8.73;;;;;;;;;;4980720;28;20033;-72
2023/09/17 04:57:20;;;;;;;42.40;8.50;;;;;;;;;;4985174;28;20033;-71
2023/09/17 04:59:46;;;;;;;43.78;7.75;;;;;;;;;;4980444;28;20420;-72
2023/09/17 05:02:16;;;;;;;36.03;7.82;;;;;;;;;;4993843;28;20383;-72
2023/09/17 05:04:42;;;;;;;34.78;7.47;;;;;;;;;;4981492;28;25209;-71
2023/09/17 05:07:08;;;;;;;46.40;8.18;;;;;;;;;;4983951;28;20469;-71
2023/09/17 05:09:35;;;;;;;51.47;8.80;;;;;;;;;;4978169;28;20065;-71
2023/09/17 05:12:01;;;;;;;41.92;7.72;;;;;;;;;;4982117;28;20038;-71
2023/09/17 05:14:28;;;;;;;53.03;9.77;;;;;;;;;;4976810;28;20111;-71
2023/09/17 05:16:55;;;;;;;44.88;8.50;;;;;;;;;;4984195;28;20030;-71
2023/09/17 05:19:21;;;;;;;51.33;9.10;;;;;;;;;;4982007;28;20495;-71
2023/09/17 05:21:47;;;;;;;53.35;10.27;;;;;;;;;;4981936;28;20030;-72
2023/09/17 05:24:13;;;;;;;63.30;11.45;;;;;;;;;;4980676;28;20349;-71
2023/09/17 05:26:39;;;;;;;48.65;9.57;;;;;;;;;;4977757;28;20116;-72
2023/09/17 05:29:05;;;;;;;44.83;9.13;;;;;;;;;;4980655;28;20433;-71
2023/09/17 05:31:32;;;;;;;45.80;8.93;;;;;;;;;;4979773;28;20116;-71
2023/09/17 05:33:59;;;;;;;45.83;8.50;;;;;;;;;;4975076;28;20131;-72
2023/09/17 05:36:25;;;;;;;46.22;8.15;;;;;;;;;;4976006;28;20030;-71
2023/09/17 05:38:51;;;;;;;55.50;9.63;;;;;;;;;;4979468;28;20026;-71
2023/09/17 05:41:17;;;;;;;52.70;9.38;;;;;;;;;;4979929;28;20045;-72
2023/09/17 05:43:45;;;;;;;48.85;8.80;;;;;;;;;;4979993;28;21618;-71
2023/09/17 05:46:11;;;;;;;42.03;7.65;;;;;;;;;;4981537;28;20469;-72
2023/09/17 05:48:39;;;;;;;38.15;7.65;;;;;;;;;;4984862;28;20031;-72
2023/09/17 05:51:05;;;;;;;29.17;5.82;;;;;;;;;;4983918;28;20420;-72
2023/09/17 05:53:31;;;;;;;47.80;8.50;;;;;;;;;;4982183;28;20080;-72
2023/09/17 05:55:58;;;;;;;49.22;9.77;;;;;;;;;;4983099;28;20061;-72
2023/09/17 05:58:24;;;;;;;51.15;10.55;;;;;;;;;;4986086;28;20447;-72
2023/09/17 06:00:50;;;;;;;38.33;8.30;;;;;;;;;;4986509;28;20058;-72
2023/09/17 06:03:16;;;;;;;53.15;9.27;;;;;;;;;;4988614;28;20052;-70
2023/09/17 06:05:42;;;;;;;50.08;9.88;;;;;;;;;;4985228;28;22341;-70
2023/09/17 06:08:09;;;;;;;48.58;9.23;;;;;;;;;;4985432;28;20034;-72
2023/09/17 06:10:35;;;;;;;41.00;8.88;;;;;;;;;;4983237;28;20108;-70
2023/09/17 06:13:01;;;;;;;41.53;8.55;;;;;;;;;;4985449;28;20120;-71
2023/09/17 06:15:27;;;;;;;38.55;7.43;;;;;;;;;;4982073;28;20029;-70
2023/09/17 06:17:54;;;;;;;46.17;9.00;;;;;;;;;;4985230;28;20552;-70
2023/09/17 06:20:20;;;;;;;34.47;6.43;;;;;;;;;;4981747;28;20038;-70
2023/09/17 06:22:48;;;;;;;31.38;6.75;;;;;;;;;;4982530;28;20885;-70
2023/09/17 06:25:14;;;;;;;29.65;6.55;;;;;;;;;;4986040;28;20365;-71
2023/09/17 06:27:40;;;;;;;31.60;6.57;;;;;;;;;;4978801;28;20033;-70
2023/09/17 06:30:06;;;;;;;35.53;7.32;;;;;;;;;;4988869;28;20034;-71
2023/09/17 06:32:33;;;;;;;38.58;7.35;;;;;;;;;;4979632;28;20238;-71
2023/09/17 06:34:59;;;;;;;34.17;6.80;;;;;;;;;;4983626;28;20469;-71
2023/09/17 06:37:25;;;;;;;43.70;8.35;;;;;;;;;;4985395;28;20061;-71
2023/09/17 06:39:51;;;;;;;30.67;5.57;;;;;;;;;;4980751;28;20029;-71
2023/09/17 06:42:17;;;;;;;30.17;6.25;;;;;;;;;;4986719;28;20061;-70
2023/09/17 06:44:43;;;;;;;27.30;6.32;;;;;;;;;;4988421;28;20030;-71
2023/09/17 06:47:10;;;;;;;38.08;6.55;;;;;;;;;;4978640;28;20034;-70
2023/09/17 06:49:36;;;;;;;31.80;6.70;;;;;;;;;;4984736;28;20121;-71
2023/09/17 06:52:02;;;;;;;40.05;7.25;;;;;;;;;;4988957;28;20519;-70
2023/09/17 06:54:28;;;;;;;39.65;8.02;;;;;;;;;;4986194;28;20030;-70
2023/09/17 06:56:54;;;;;;;36.95;7.88;;;;;;;;;;4981327;28;20485;-72
2023/09/17 06:59:20;;;;;;;45.53;8.48;;;;;;;;;;4983148;28;20038;-72
2023/09/17 07:01:47;;;;;;;35.00;7.80;;;;;;;;;;4975707;28;20229;-72
2023/09/17 07:04:13;;;;;;;33.80;8.45;;;;;;;;;;4984173;28;20031;-71
2023/09/17 07:06:39;;;;;;;38.17;8.55;;;;;;;;;;4978869;28;20030;-70
2023/09/17 07:09:07;;;;;;;45.15;8.45;;;;;;;;;;4984000;28;20035;-69
2023/09/17 07:11:33;;;;;;;34.03;8.10;;;;;;;;;;4979726;28;20271;-72
2023/09/17 07:14:02;;;;;;;36.55;8.30;;;;;;;;;;4986162;28;20554;-72
2023/09/17 07:16:29;;;;;;;36.35;7.80;;;;;;;;;;4981577;28;20056;-70
2023/09/17 07:18:55;;;;;;;44.45;8.90;;;;;;;;;;4982587;28;20446;-70
2023/09/17 07:21:21;;;;;;;42.88;8.55;;;;;;;;;;4967637;28;20042;-69
2023/09/17 07:23:50;;;;;;;37.72;7.63;;;;;;;;;;4979199;28;20887;-73
2023/09/17 07:26:16;;;;;;;52.45;9.40;;;;;;;;;;4981860;28;20033;-70
2023/09/17 07:28:43;;;;;;;41.38;8.85;;;;;;;;;;4977406;28;20028;-70
2023/09/17 07:31:11;;;;;;;37.22;8.20;;;;;;;;;;4976699;28;20038;-70
2023/09/17 07:33:39;;;;;;;40.35;8.30;;;;;;;;;;4976160;28;20137;-72
2023/09/17 07:36:05;;;;;;;42.15;7.70;;;;;;;;;;4984441;28;20448;-70
2023/09/17 07:38:32;;;;;;;43.40;8.30;;;;;;;;;;4978626;28;20317;-71
2023/09/17 07:40:58;;;;;;;34.00;7.78;;;;;;;;;;4976698;28;20049;-71
2023/09/17 07:43:24;;;;;;;36.90;8.13;;;;;;;;;;4974979;28;20084;-71
2023/09/17 07:45:50;;;;;;;42.25;8.07;;;;;;;;;;4979352;28;20053;-71
2023/09/17 07:48:16;;;;;;;43.47;8.23;;;;;;;;;;4982540;28;20188;-71
2023/09/17 07:50:43;;;;;;;44.30;8.57;;;;;;;;;;4977088;28;21398;-71
2023/09/17 07:53:10;;;;;;;43.90;8.48;;;;;;;;;;4974662;28;20026;-71
2023/09/17 07:55:36;;;;;;;36.17;7.43;;;;;;;;;;4980393;28;20312;-70
2023/09/17 07:58:03;;;;;;;35.25;7.78;;;;;;;;;;4983754;28;20603;-70
2023/09/17 08:00:29;;;;;;;24.55;6.18;;;;;;;;;;4976248;28;20270;-71
2023/09/17 08:02:55;;;;;;;34.88;7.07;;;;;;;;;;4980118;28;20026;-70
2023/09/17 08:05:25;;;;;;;36.20;7.65;;;;;;;;;;4980952;28;20136;-71
2023/09/17 08:07:51;;;;;;;31.90;7.38;;;;;;;;;;4983455;28;20088;-71
2023/09/17 08:10:17;;;;;;;32.55;7.50;;;;;;;;;;4985368;28;20468;-71
2023/09/17 08:12:43;;;;;;;40.42;7.55;;;;;;;;;;4985512;28;20531;-71
2023/09/17 08:15:09;;;;;;;46.60;8.18;;;;;;;;;;4978889;28;20555;-70
2023/09/17 08:17:36;;;;;;;40.03;8.18;;;;;;;;;;4980683;28;20112;-71
2023/09/17 08:20:03;;;;;;;38.55;8.25;;;;;;;;;;4983397;28;20041;-71
2023/09/17 08:22:29;;;;;;;38.25;7.75;;;;;;;;;;4980549;28;20465;-72
2023/09/17 08:24:55;;;;;;;38.08;7.22;;;;;;;;;;4988514;28;20080;-72
2023/09/17 08:27:21;;;;;;;36.20;7.45;;;;;;;;;;4981307;28;20524;-71
2023/09/17 08:29:47;;;;;;;30.83;6.82;;;;;;;;;;4982477;28;20030;-72
2023/09/17 08:32:14;;;;;;;38.60;8.20;;;;;;;;;;4981787;28;20021;-71
2023/09/17 08:34:40;;;;;;;37.35;9.63;;;;;;;;;;4981213;28;20042;-72
2023/09/17 08:37:06;;;;;;;45.97;11.25;;;;;;;;;;4984863;28;20029;-72
2023/09/17 08:39:32;;;;;;;31.15;9.02;;;;;;;;;;4982922;28;20037;-71
2023/09/17 08:42:03;;;;;;;34.20;8.18;;;;;;;;;;4979917;28;20522;-72
2023/09/17 08:44:30;;;;;;;35.35;7.70;;;;;;;;;;4975936;28;20040;-71
2023/09/17 08:46:59;;;;;;;34.63;7.35;;;;;;;;;;4973281;28;20556;-73
2023/09/17 08:49:25;;;;;;;42.08;8.85;;;;;;;;;;4974898;28;20126;-73
2023/09/17 08:51:53;;;;;;;43.10;8.95;;;;;;;;;;4972549;28;20021;-73
2023/09/17 08:54:25;;;;;;;46.72;9.70;;;;;;;;;;4979482;28;20519;-73
2023/09/17 08:56:52;;;;;;;52.13;10.43;;;;;;;;;;4980783;28;20060;-73
2023/09/17 08:59:30;;;;;;;45.95;10.02;;;;;;;;;;4976966;28;20037;-73
2023/09/17 09:01:57;;;;;;;48.03;10.07;;;;;;;;;;4998070;28;20482;-73
2023/09/17 09:04:24;;;;;;;48.58;9.50;;;;;;;;;;4977723;28;20467;-72
2023/09/17 09:06:51;;;;;;;49.08;9.60;;;;;;;;;;4982032;28;20030;-73
2023/09/17 09:09:17;;;;;;;56.35;10.25;;;;;;;;;;4979404;28;20259;-73
2023/09/17 09:11:43;;;;;;;43.97;9.30;;;;;;;;;;4978965;28;20033;-71
2023/09/17 09:14:10;;;;;;;42.38;9.55;;;;;;;;;;4980060;28;20034;-71
2023/09/17 09:16:39;;;;;;;36.08;9.02;;;;;;;;;;4975966;28;20044;-72
2023/09/17 09:19:07;;;;;;;47.22;9.80;;;;;;;;;;4978579;28;20046;-72
2023/09/17 09:21:33;;;;;;;56.15;11.23;;;;;;;;;;4974936;28;20089;-72
2023/09/17 09:23:59;;;;;;;43.95;9.80;;;;;;;;;;4979539;28;20126;-72
2023/09/17 09:26:33;;;;;;;45.70;9.63;;;;;;;;;;4975168;28;20522;-72
2023/09/17 09:29:00;;;;;;;45.95;9.77;;;;;;;;;;4977717;28;20081;-72
2023/09/17 09:31:26;;;;;;;43.60;9.45;;;;;;;;;;4976320;28;20033;-71
2023/09/17 09:33:52;;;;;;;40.10;9.63;;;;;;;;;;4976673;28;20278;-72
2023/09/17 09:36:20;;;;;;;50.45;10.32;;;;;;;;;;4978183;28;20061;-72
2023/09/17 09:38:46;;;;;;;60.38;10.40;;;;;;;;;;4977589;28;20472;-73
2023/09/17 09:41:13;;;;;;;38.45;9.23;;;;;;;;;;4988503;28;20035;-72
2023/09/17 09:43:39;;;;;;;47.80;10.25;;;;;;;;;;4985776;28;20030;-72
2023/09/17 09:46:06;;;;;;;50.42;10.95;;;;;;;;;;4983430;28;20116;-72
2023/09/17 09:48:37;;;;;;;42.90;9.15;;;;;;;;;;4980742;28;20025;-72
2023/09/17 09:51:03;;;;;;;37.88;8.75;;;;;;;;;;4979236;28;20157;-70
2023/09/17 09:53:29;;;;;;;51.58;11.02;;;;;;;;;;4982358;28;20129;-74
2023/09/17 09:55:56;;;;;;;44.15;10.70;;;;;;;;;;4987085;28;20107;-72
2023/09/17 09:58:22;;;;;;;47.30;10.68;;;;;;;;;;4977597;28;20049;-73
2023/09/17 10:00:49;;;;;;;43.00;9.75;;;;;;;;;;4979762;28;20039;-73
2023/09/17 10:03:17;;;;;;;48.00;10.82;;;;;;;;;;4976616;28;20025;-73
2023/09/17 10:05:44;;;;;;;47.28;10.75;;;;;;;;;;4979944;28;20052;-73
2023/09/17 10:08:12;;;;;;;41.90;9.52;;;;;;;;;;4980765;28;20149;-73
2023/09/17 10:10:38;;;;;;;36.25;8.30;;;;;;;;;;4975495;28;20306;-73
2023/09/17 10:13:09;;;;;;;48.67;10.50;;;;;;;;;;4977702;28;20034;-73
2023/09/17 10:15:36;;;;;;;41.70;10.18;;;;;;;;;;4972885;28;20030;-73
2023/09/17 10:18:04;;;;;;;38.30;9.07;;;;;;;;;;4978384;28;20033;-72
2023/09/17 10:20:31;;;;;;;41.97;11.15;;;;;;;;;;4978460;28;20137;-72
2023/09/17 10:22:58;;;;;;;33.08;8.82;;;;;;;;;;4980004;28;20024;-72
2023/09/17 10:25:24;;;;;;;38.70;9.35;;;;;;;;;;4973344;28;20459;-73
2023/09/17 10:27:51;;;;;;;41.55;9.73;;;;;;;;;;4982751;28;20465;-73
2023/09/17 10:30:18;;;;;;;34.92;9.07;;;;;;;;;;4977038;28;20332;-73
2023/09/17 10:32:47;;;;;;;43.65;9.27;;;;;;;;;;4973267;28;20464;-73
2023/09/17 10:35:17;;;;;;;39.03;8.25;;;;;;;;;;4979098;28;20038;-73
2023/09/17 10:37:43;;;;;;;36.25;9.23;;;;;;;;;;4979509;28;20322;-73
2023/09/17 10:40:10;;;;;;;34.50;8.57;;;;;;;;;;4983755;28;20575;-73
2023/09/17 10:42:38;;;;;;;47.20;9.68;;;;;;;;;;4986456;28;20084;-72
2023/09/17 10:45:07;;;;;;;46.10;10.65;;;;;;;;;;4984274;28;20467;-72
2023/09/17 10:47:36;;;;;;;32.03;8.48;;;;;;;;;;4977745;28;20463;-72
2023/09/17 10:50:05;;;;;;;42.45;9.63;;;;;;;;;;4984792;28;20906;-72
2023/09/17 10:52:32;;;;;;;38.35;10.43;;;;;;;;;;4994850;28;20298;-73
2023/09/17 10:54:59;;;;;;;39.00;9.38;;;;;;;;;;4986557;28;20657;-73
2023/09/17 10:57:28;;;;;;;55.17;13.32;;;;;;;;;;4979797;28;20038;-72
2023/09/17 10:59:55;;;;;;;47.22;11.02;;;;;;;;;;4978749;28;20033;-72
2023/09/17 11:02:22;;;;;;;44.70;10.75;;;;;;;;;;4982057;28;20052;-72
2023/09/17 11:04:48;;;;;;;37.58;9.90;;;;;;;;;;4977774;28;20132;-72
2023/09/17 11:07:15;;;;;;;46.15;10.40;;;;;;;;;;4984781;28;20179;-71
2023/09/17 11:09:42;;;;;;;39.45;9.77;;;;;;;;;;4977972;28;20092;-72
2023/09/17 11:12:09;;;;;;;41.85;9.70;;;;;;;;;;4983780;28;21297;-72
2023/09/17 11:14:35;;;;;;;38.95;9.23;;;;;;;;;;4981365;28;20033;-71
2023/09/17 11:17:04;;;;;;;42.47;9.77;;;;;;;;;;4983216;28;20080;-71
2023/09/17 11:19:30;;;;;;;40.08;9.18;;;;;;;;;;4976364;28;20508;-72
2023/09/17 11:22:03;;;;;;;41.40;9.55;;;;;;;;;;4983073;28;20034;-71
2023/09/17 11:24:31;;;;;;;39.67;8.55;;;;;;;;;;4976390;28;20076;-72
2023/09/17 11:26:58;;;;;;;35.63;8.85;;;;;;;;;;4994202;28;20041;-72
2023/09/17 11:29:45;;;;;;;39.33;9.20;;;;;;;;;;4972284;28;20116;-72
2023/09/17 11:32:13;;;;;;;38.85;9.05;;;;;;;;;;4981760;28;20595;-72
2023/09/17 11:34:41;;;;;;;43.95;10.13;;;;;;;;;;4980436;28;20076;-72
2023/09/17 14:54:31;;;;;;;38.97;8.18;;;;;;;;;;5263000;23;20410;-72
2023/09/17 14:56:57;;;;;;;36.58;8.07;;;;;;;;;;4900795;29;20265;-72
2023/09/17 14:59:24;;;;;;;37.78;8.07;;;;;;;;;;4905654;29;20154;-73
2023/09/17 15:01:50;;;;;;;39.72;8.32;;;;;;;;;;4908655;29;20587;-73
2023/09/17 15:04:16;;;;;;;38.05;7.70;;;;;;;;;;4907061;29;20036;-73
2023/09/17 15:06:42;;;;;;;43.38;8.38;;;;;;;;;;4900332;29;20054;-72
2023/09/17 15:09:09;;;;;;;52.85;9.00;;;;;;;;;;4905661;29;20038;-73
2023/09/17 15:11:35;;;;;;;44.90;8.70;;;;;;;;;;4905848;29;20141;-74
2023/09/17 15:14:01;;;;;;;39.25;7.47;;;;;;;;;;4906475;29;20043;-74
2023/09/17 15:16:30;;;;;;;47.75;8.60;;;;;;;;;;4902883;29;20031;-75
2023/09/17 15:18:56;;;;;;;43.20;8.95;;;;;;;;;;4912129;29;20383;-73
2023/09/17 15:21:22;;;;;;;39.90;7.90;;;;;;;;;;4911258;29;20062;-74
2023/09/17 15:23:48;;;;;;;50.72;9.75;;;;;;;;;;4904539;29;20048;-72
2023/09/17 15:26:14;;;;;;;37.63;8.05;;;;;;;;;;4906514;29;20549;-72
2023/09/17 15:28:43;;;;;;;49.13;8.60;;;;;;;;;;4904682;29;20264;-72
2023/09/17 15:31:09;;;;;;;44.33;8.73;;;;;;;;;;4905712;29;20035;-72
2023/09/17 15:33:35;;;;;;;44.83;9.13;;;;;;;;;;4904590;29;20407;-73
2023/09/17 15:36:01;;;;;;;45.20;9.75;;;;;;;;;;4904419;29;20080;-74
2023/09/17 15:38:27;;;;;;;47.88;9.27;;;;;;;;;;4902102;29;20044;-73
2023/09/17 15:40:57;;;;;;;50.13;9.63;;;;;;;;;;4905210;29;20411;-73
2023/09/17 15:43:24;;;;;;;39.42;8.57;;;;;;;;;;4907347;29;20035;-73
2023/09/17 15:45:50;;;;;;;48.55;9.73;;;;;;;;;;4908213;29;20025;-73
2023/09/17 15:48:16;;;;;;;49.55;9.02;;;;;;;;;;4913866;29;20330;-73
2023/09/17 15:50:43;;;;;;;47.63;9.30;;;;;;;;;;4906064;29;20551;-73
2023/09/17 15:53:09;;;;;;;52.05;9.90;;;;;;;;;;4907785;29;20422;-72
2023/09/17 15:55:35;;;;;;;48.90;9.50;;;;;;;;;;4899812;29;20426;-72
2023/09/17 15:58:01;;;;;;;42.20;9.60;;;;;;;;;;4904959;29;20470;-75
2023/09/17 16:00:28;;;;;;;49.95;10.18;;;;;;;;;;4910115;29;20027;-74
2023/09/17 16:02:55;;;;;;;42.20;9.35;;;;;;;;;;4908146;29;20639;-74
2023/09/17 16:05:21;;;;;;;43.90;9.82;;;;;;;;;;4912156;29;20620;-73
2023/09/17 16:07:50;;;;;;;41.78;9.65;;;;;;;;;;4901111;29;20032;-73
2023/09/17 16:10:17;;;;;;;49.35;10.07;;;;;;;;;;4909845;29;20378;-73
2023/09/17 16:12:43;;;;;;;42.83;9.57;;;;;;;;;;4905203;28;20174;-73
2023/09/17 16:15:10;;;;;;;46.83;10.02;;;;;;;;;;4908184;29;20516;-73
2023/09/17 16:17:37;;;;;;;47.55;9.60;;;;;;;;;;4899993;29;20035;-73
2023/09/17 16:20:04;;;;;;;46.30;9.80;;;;;;;;;;4910299;29;20023;-74
2023/09/17 16:22:30;;;;;;;45.15;9.38;;;;;;;;;;4906575;28;20427;-74
2023/09/17 16:24:56;;;;;;;44.28;8.68;;;;;;;;;;4903995;29;20059;-74
2023/09/17 16:27:22;;;;;;;45.03;11.18;;;;;;;;;;4907494;29;20055;-72
2023/09/17 16:29:48;;;;;;;52.45;10.00;;;;;;;;;;4900421;29;20028;-72
2023/09/17 16:32:15;;;;;;;40.63;9.48;;;;;;;;;;4902946;29;20358;-72
2023/09/17 16:34:41;;;;;;;57.50;10.65;;;;;;;;;;4904472;29;20095;-74
2023/09/17 16:37:08;;;;;;;47.30;9.93;;;;;;;;;;4903934;29;20080;-74
2023/09/17 16:39:34;;;;;;;49.20;9.68;;;;;;;;;;4901195;29;20040;-74
2023/09/17 16:42:00;;;;;;;45.75;10.10;;;;;;;;;;4906206;29;20039;-74
2023/09/17 16:44:27;;;;;;;44.55;9.18;;;;;;;;;;4906183;29;20036;-72
2023/09/17 16:46:53;;;;;;;42.70;8.85;;;;;;;;;;4909844;29;20032;-73
2023/09/17 16:49:19;;;;;;;48.17;9.77;;;;;;;;;;4912355;29;20256;-73
2023/09/17 16:51:49;;;;;;;48.60;10.70;;;;;;;;;;4903943;29;20719;-73
2023/09/17 16:54:18;;;;;;;48.25;9.45;;;;;;;;;;4905612;29;20058;-73
2023/09/17 16:56:45;;;;;;;48.30;9.57;;;;;;;;;;4903737;28;20111;-72
2023/09/17 16:59:11;;;;;;;41.70;9.13;;;;;;;;;;4906845;29;20460;-72
2023/09/17 17:01:38;;;;;;;42.08;8.95;;;;;;;;;;4901336;29;20024;-73
2023/09/17 17:04:05;;;;;;;50.55;10.55;;;;;;;;;;4909088;29;20146;-72
2023/09/17 17:06:31;;;;;;;48.88;9.73;;;;;;;;;;4906500;29;20158;-72
2023/09/17 17:08:57;;;;;;;39.55;9.40;;;;;;;;;;4908344;29;20042;-73
2023/09/17 17:11:23;;;;;;;42.13;9.02;;;;;;;;;;4907124;29;20027;-73
2023/09/17 17:13:50;;;;;;;46.95;9.60;;;;;;;;;;4900276;29;20038;-74
2023/09/17 17:16:16;;;;;;;55.03;10.05;;;;;;;;;;4907134;29;20031;-73
2023/09/17 17:18:42;;;;;;;50.00;10.02;;;;;;;;;;4906111;29;20122;-71
2023/09/17 17:21:08;;;;;;;45.13;9.75;;;;;;;;;;4903837;29;20486;-71
2023/09/17 17:23:36;;;;;;;44.53;10.52;;;;;;;;;;4903151;29;20558;-72
2023/09/17 17:26:02;;;;;;;48.28;9.77;;;;;;;;;;4903291;29;20417;-72
2023/09/17 17:28:28;;;;;;;43.65;9.10;;;;;;;;;;4904469;29;20485;-72
2023/09/17 17:30:55;;;;;;;42.83;9.40;;;;;;;;;;4908731;29;20035;-72
2023/09/17 17:33:21;;;;;;;44.00;10.50;;;;;;;;;;4905725;29;20028;-72
2023/09/17 17:35:47;;;;;;;43.75;9.45;;;;;;;;;;4908443;29;20042;-73
2023/09/17 17:38:14;;;;;;;42.10;8.90;;;;;;;;;;4903668;29;20035;-72
2023/09/17 17:40:40;;;;;;;41.67;9.05;;;;;;;;;;4903987;28;20102;-73